sensor_id;sensor_type;location;lat;lon;timestamp;P1;durP1;ratioP1;P2;durP2;ratioP2
9763;SDS011;4921;43.214;27.936;2023-03-24T00:00:09;65.03;;;45.83;;
9763;SDS011;4921;43.214;27.936;2023-03-24T00:02:38;68.53;;;45.93;;
9763;SDS011;4921;43.214;27.936;2023-03-24T00:05:07;67.30;;;46.33;;
9763;SDS011;4921;43.214;27.936;2023-03-24T00:07:36;64.20;;;44.43;;
9763;SDS011;4921;43.214;27.936;2023-03-24T00:10:04;55.47;;;42.00;;
9763;SDS011;4921;43.214;27.936;2023-03-24T00:12:35;58.80;;;41.27;;
9763;SDS011;4921;43.214;27.936;2023-03-24T00:15:04;58.20;;;38.87;;
9763;SDS011;4921;43.214;27.936;2023-03-24T00:17:33;61.03;;;40.17;;
9763;SDS011;4921;43.214;27.936;2023-03-24T00:20:02;60.07;;;40.67;;
9763;SDS011;4921;43.214;27.936;2023-03-24T00:22:36;54.07;;;37.87;;
9763;SDS011;4921;43.214;27.936;2023-03-24T00:25:06;52.53;;;38.67;;
9763;SDS011;4921;43.214;27.936;2023-03-24T00:27:36;55.13;;;40.77;;
9763;SDS011;4921;43.214;27.936;2023-03-24T00:30:04;59.43;;;41.03;;
9763;SDS011;4921;43.214;27.936;2023-03-24T00:32:33;61.70;;;43.27;;
9763;SDS011;4921;43.214;27.936;2023-03-24T00:35:03;65.10;;;42.37;;
9763;SDS011;4921;43.214;27.936;2023-03-24T00:37:30;60.83;;;44.13;;
9763;SDS011;4921;43.214;27.936;2023-03-24T00:39:58;59.40;;;44.70;;
9763;SDS011;4921;43.214;27.936;2023-03-24T00:42:25;64.70;;;47.10;;
9763;SDS011;4921;43.214;27.936;2023-03-24T00:44:54;60.73;;;46.20;;
9763;SDS011;4921;43.214;27.936;2023-03-24T00:47:21;61.63;;;46.03;;
9763;SDS011;4921;43.214;27.936;2023-03-24T00:49:50;63.07;;;47.20;;
9763;SDS011;4921;43.214;27.936;2023-03-24T00:52:19;59.03;;;44.30;;
9763;SDS011;4921;43.214;27.936;2023-03-24T00:54:52;63.53;;;46.17;;
9763;SDS011;4921;43.214;27.936;2023-03-24T00:57:22;62.00;;;47.40;;
9763;SDS011;4921;43.214;27.936;2023-03-24T00:59:50;63.47;;;47.47;;
9763;SDS011;4921;43.214;27.936;2023-03-24T01:02:22;59.83;;;47.53;;
9763;SDS011;4921;43.214;27.936;2023-03-24T01:04:51;63.77;;;46.73;;
9763;SDS011;4921;43.214;27.936;2023-03-24T01:07:19;61.83;;;47.27;;
9763;SDS011;4921;43.214;27.936;2023-03-24T01:09:46;64.10;;;45.63;;
9763;SDS011;4921;43.214;27.936;2023-03-24T01:12:21;67.87;;;47.00;;
9763;SDS011;4921;43.214;27.936;2023-03-24T01:14:49;61.83;;;46.40;;
9763;SDS011;4921;43.214;27.936;2023-03-24T01:17:17;66.83;;;45.13;;
9763;SDS011;4921;43.214;27.936;2023-03-24T01:19:47;58.83;;;43.43;;
9763;SDS011;4921;43.214;27.936;2023-03-24T01:22:15;62.77;;;44.47;;
9763;SDS011;4921;43.214;27.936;2023-03-24T01:24:42;60.40;;;45.00;;
9763;SDS011;4921;43.214;27.936;2023-03-24T01:27:09;55.97;;;41.27;;
9763;SDS011;4921;43.214;27.936;2023-03-24T01:29:36;63.77;;;44.33;;
9763;SDS011;4921;43.214;27.936;2023-03-24T01:32:03;63.67;;;41.97;;
9763;SDS011;4921;43.214;27.936;2023-03-24T01:34:31;61.30;;;42.30;;
9763;SDS011;4921;43.214;27.936;2023-03-24T01:36:59;55.27;;;41.10;;
9763;SDS011;4921;43.214;27.936;2023-03-24T01:39:27;55.33;;;41.37;;
9763;SDS011;4921;43.214;27.936;2023-03-24T01:41:54;53.27;;;41.27;;
9763;SDS011;4921;43.214;27.936;2023-03-24T01:44:22;52.20;;;41.50;;
9763;SDS011;4921;43.214;27.936;2023-03-24T01:46:51;57.60;;;41.43;;
9763;SDS011;4921;43.214;27.936;2023-03-24T01:49:19;52.67;;;41.63;;
9763;SDS011;4921;43.214;27.936;2023-03-24T01:51:47;52.97;;;39.50;;
9763;SDS011;4921;43.214;27.936;2023-03-24T01:54:20;54.63;;;40.30;;
9763;SDS011;4921;43.214;27.936;2023-03-24T01:56:50;55.43;;;40.67;;
9763;SDS011;4921;43.214;27.936;2023-03-24T01:59:21;56.83;;;41.43;;
9763;SDS011;4921;43.214;27.936;2023-03-24T02:01:52;54.23;;;41.63;;
9763;SDS011;4921;43.214;27.936;2023-03-24T02:04:27;51.87;;;39.50;;
9763;SDS011;4921;43.214;27.936;2023-03-24T02:06:55;53.53;;;40.53;;
9763;SDS011;4921;43.214;27.936;2023-03-24T02:09:25;54.57;;;41.00;;
9763;SDS011;4921;43.214;27.936;2023-03-24T02:11:53;56.50;;;41.77;;
9763;SDS011;4921;43.214;27.936;2023-03-24T02:14:21;52.07;;;41.20;;
9763;SDS011;4921;43.214;27.936;2023-03-24T02:16:52;52.80;;;41.70;;
9763;SDS011;4921;43.214;27.936;2023-03-24T02:19:54;58.30;;;42.13;;
9763;SDS011;4921;43.214;27.936;2023-03-24T02:25:48;56.93;;;41.23;;
9763;SDS011;4921;43.214;27.936;2023-03-24T02:28:44;50.67;;;40.00;;
9763;SDS011;4921;43.214;27.936;2023-03-24T02:31:27;47.83;;;37.93;;
9763;SDS011;4921;43.214;27.936;2023-03-24T02:37:22;43.07;;;37.10;;
9763;SDS011;4921;43.214;27.936;2023-03-24T02:40:15;41.90;;;36.23;;
9763;SDS011;4921;43.214;27.936;2023-03-24T02:42:51;42.30;;;35.10;;
9763;SDS011;4921;43.214;27.936;2023-03-24T02:45:35;44.37;;;35.20;;
9763;SDS011;4921;43.214;27.936;2023-03-24T02:48:18;42.23;;;34.63;;
9763;SDS011;4921;43.214;27.936;2023-03-24T02:50:50;41.53;;;34.30;;
9763;SDS011;4921;43.214;27.936;2023-03-24T02:53:23;43.33;;;34.93;;
9763;SDS011;4921;43.214;27.936;2023-03-24T02:55:59;44.27;;;34.23;;
9763;SDS011;4921;43.214;27.936;2023-03-24T02:58:34;48.17;;;35.50;;
9763;SDS011;4921;43.214;27.936;2023-03-24T03:01:05;45.03;;;36.03;;
9763;SDS011;4921;43.214;27.936;2023-03-24T03:03:35;52.27;;;38.53;;
9763;SDS011;4921;43.214;27.936;2023-03-24T03:06:07;48.67;;;36.90;;
9763;SDS011;4921;43.214;27.936;2023-03-24T03:08:40;52.50;;;36.53;;
9763;SDS011;4921;43.214;27.936;2023-03-24T03:11:11;46.23;;;36.70;;
9763;SDS011;4921;43.214;27.936;2023-03-24T03:13:41;41.13;;;33.63;;
9763;SDS011;4921;43.214;27.936;2023-03-24T03:16:15;41.23;;;32.60;;
9763;SDS011;4921;43.214;27.936;2023-03-24T03:18:47;34.53;;;30.57;;
9763;SDS011;4921;43.214;27.936;2023-03-24T03:21:18;33.73;;;29.77;;
9763;SDS011;4921;43.214;27.936;2023-03-24T03:23:49;33.00;;;27.73;;
9763;SDS011;4921;43.214;27.936;2023-03-24T03:26:21;32.70;;;27.53;;
9763;SDS011;4921;43.214;27.936;2023-03-24T03:28:54;33.53;;;28.67;;
9763;SDS011;4921;43.214;27.936;2023-03-24T03:31:25;30.67;;;27.37;;
9763;SDS011;4921;43.214;27.936;2023-03-24T03:33:58;29.17;;;26.07;;
9763;SDS011;4921;43.214;27.936;2023-03-24T03:36:33;30.87;;;24.60;;
9763;SDS011;4921;43.214;27.936;2023-03-24T03:39:05;29.30;;;25.60;;
9763;SDS011;4921;43.214;27.936;2023-03-24T03:41:39;30.13;;;26.10;;
9763;SDS011;4921;43.214;27.936;2023-03-24T03:44:07;28.97;;;24.70;;
9763;SDS011;4921;43.214;27.936;2023-03-24T03:46:38;28.23;;;24.70;;
9763;SDS011;4921;43.214;27.936;2023-03-24T03:49:06;30.83;;;26.57;;
9763;SDS011;4921;43.214;27.936;2023-03-24T03:51:34;33.37;;;26.47;;
9763;SDS011;4921;43.214;27.936;2023-03-24T03:54:02;31.33;;;28.03;;
9763;SDS011;4921;43.214;27.936;2023-03-24T03:56:32;39.30;;;32.50;;
9763;SDS011;4921;43.214;27.936;2023-03-24T03:59:02;37.90;;;32.00;;
9763;SDS011;4921;43.214;27.936;2023-03-24T04:01:31;32.50;;;28.93;;
9763;SDS011;4921;43.214;27.936;2023-03-24T04:04:07;35.33;;;28.33;;
9763;SDS011;4921;43.214;27.936;2023-03-24T04:06:46;34.93;;;28.50;;
9763;SDS011;4921;43.214;27.936;2023-03-24T04:09:26;30.90;;;26.73;;
9763;SDS011;4921;43.214;27.936;2023-03-24T04:15:13;30.57;;;26.77;;
9763;SDS011;4921;43.214;27.936;2023-03-24T04:17:58;32.17;;;26.20;;
9763;SDS011;4921;43.214;27.936;2023-03-24T04:20:39;35.23;;;27.60;;
9763;SDS011;4921;43.214;27.936;2023-03-24T04:23:13;42.10;;;29.60;;
9763;SDS011;4921;43.214;27.936;2023-03-24T04:25:53;38.53;;;29.63;;
9763;SDS011;4921;43.214;27.936;2023-03-24T04:28:32;38.17;;;31.63;;
9763;SDS011;4921;43.214;27.936;2023-03-24T04:31:09;39.47;;;32.10;;
9763;SDS011;4921;43.214;27.936;2023-03-24T04:33:43;43.10;;;33.60;;
9763;SDS011;4921;43.214;27.936;2023-03-24T04:36:18;45.23;;;33.40;;
9763;SDS011;4921;43.214;27.936;2023-03-24T04:38:51;41.20;;;33.60;;
9763;SDS011;4921;43.214;27.936;2023-03-24T04:41:22;42.77;;;35.60;;
9763;SDS011;4921;43.214;27.936;2023-03-24T04:43:52;52.13;;;37.57;;
9763;SDS011;4921;43.214;27.936;2023-03-24T04:46:23;50.50;;;39.27;;
9763;SDS011;4921;43.214;27.936;2023-03-24T04:48:50;54.53;;;39.53;;
9763;SDS011;4921;43.214;27.936;2023-03-24T04:51:17;52.47;;;41.67;;
9763;SDS011;4921;43.214;27.936;2023-03-24T04:53:46;52.10;;;38.70;;
9763;SDS011;4921;43.214;27.936;2023-03-24T04:56:30;51.03;;;37.23;;
9763;SDS011;4921;43.214;27.936;2023-03-24T04:59:05;44.70;;;34.63;;
9763;SDS011;4921;43.214;27.936;2023-03-24T05:01:34;49.73;;;37.63;;
9763;SDS011;4921;43.214;27.936;2023-03-24T05:04:01;46.23;;;37.03;;
9763;SDS011;4921;43.214;27.936;2023-03-24T05:06:29;49.07;;;36.47;;
9763;SDS011;4921;43.214;27.936;2023-03-24T05:11:43;53.30;;;38.37;;
9763;SDS011;4921;43.214;27.936;2023-03-24T05:14:10;48.03;;;38.60;;
9763;SDS011;4921;43.214;27.936;2023-03-24T05:16:39;48.37;;;37.83;;
9763;SDS011;4921;43.214;27.936;2023-03-24T05:19:06;43.60;;;35.17;;
9763;SDS011;4921;43.214;27.936;2023-03-24T05:21:33;44.87;;;35.20;;
9763;SDS011;4921;43.214;27.936;2023-03-24T05:24:01;41.67;;;34.63;;
9763;SDS011;4921;43.214;27.936;2023-03-24T05:26:28;62.53;;;35.00;;
9763;SDS011;4921;43.214;27.936;2023-03-24T05:28:55;40.57;;;33.27;;
9763;SDS011;4921;43.214;27.936;2023-03-24T05:31:22;41.17;;;33.43;;
9763;SDS011;4921;43.214;27.936;2023-03-24T05:33:50;40.90;;;33.03;;
9763;SDS011;4921;43.214;27.936;2023-03-24T05:36:17;38.60;;;30.60;;
9763;SDS011;4921;43.214;27.936;2023-03-24T05:38:44;39.30;;;32.63;;
9763;SDS011;4921;43.214;27.936;2023-03-24T05:41:11;41.23;;;32.63;;
9763;SDS011;4921;43.214;27.936;2023-03-24T05:43:38;45.63;;;34.47;;
9763;SDS011;4921;43.214;27.936;2023-03-24T05:46:05;46.67;;;35.53;;
9763;SDS011;4921;43.214;27.936;2023-03-24T05:48:33;55.73;;;37.20;;
9763;SDS011;4921;43.214;27.936;2023-03-24T05:51:01;65.77;;;40.37;;
9763;SDS011;4921;43.214;27.936;2023-03-24T05:53:28;71.63;;;42.07;;
9763;SDS011;4921;43.214;27.936;2023-03-24T05:55:55;75.07;;;42.70;;
9763;SDS011;4921;43.214;27.936;2023-03-24T05:58:23;73.40;;;44.67;;
9763;SDS011;4921;43.214;27.936;2023-03-24T06:00:50;74.13;;;41.23;;
9763;SDS011;4921;43.214;27.936;2023-03-24T06:03:18;67.90;;;39.47;;
9763;SDS011;4921;43.214;27.936;2023-03-24T06:05:45;60.87;;;37.87;;
9763;SDS011;4921;43.214;27.936;2023-03-24T06:08:14;57.37;;;34.93;;
9763;SDS011;4921;43.214;27.936;2023-03-24T06:10:42;47.40;;;31.53;;
9763;SDS011;4921;43.214;27.936;2023-03-24T06:13:09;39.53;;;29.47;;
9763;SDS011;4921;43.214;27.936;2023-03-24T06:15:37;36.77;;;28.93;;
9763;SDS011;4921;43.214;27.936;2023-03-24T06:18:06;35.37;;;28.17;;
9763;SDS011;4921;43.214;27.936;2023-03-24T06:20:33;45.30;;;29.30;;
9763;SDS011;4921;43.214;27.936;2023-03-24T06:23:01;35.30;;;27.80;;
9763;SDS011;4921;43.214;27.936;2023-03-24T06:25:29;39.80;;;27.03;;
9763;SDS011;4921;43.214;27.936;2023-03-24T06:27:57;35.07;;;25.43;;
9763;SDS011;4921;43.214;27.936;2023-03-24T06:30:28;36.33;;;25.30;;
9763;SDS011;4921;43.214;27.936;2023-03-24T06:32:55;33.97;;;25.13;;
9763;SDS011;4921;43.214;27.936;2023-03-24T06:35:22;31.27;;;24.70;;
9763;SDS011;4921;43.214;27.936;2023-03-24T06:37:49;32.67;;;23.93;;
9763;SDS011;4921;43.214;27.936;2023-03-24T06:40:16;27.53;;;24.60;;
9763;SDS011;4921;43.214;27.936;2023-03-24T06:42:45;31.00;;;23.60;;
9763;SDS011;4921;43.214;27.936;2023-03-24T06:45:13;31.03;;;24.00;;
9763;SDS011;4921;43.214;27.936;2023-03-24T06:47:41;31.17;;;23.43;;
9763;SDS011;4921;43.214;27.936;2023-03-24T06:50:08;29.93;;;23.03;;
9763;SDS011;4921;43.214;27.936;2023-03-24T06:52:35;32.30;;;23.10;;
9763;SDS011;4921;43.214;27.936;2023-03-24T06:55:03;31.23;;;22.93;;
9763;SDS011;4921;43.214;27.936;2023-03-24T06:57:30;31.23;;;24.10;;
9763;SDS011;4921;43.214;27.936;2023-03-24T06:59:58;29.87;;;22.73;;
9763;SDS011;4921;43.214;27.936;2023-03-24T07:02:26;29.53;;;23.17;;
9763;SDS011;4921;43.214;27.936;2023-03-24T07:04:58;30.17;;;23.00;;
9763;SDS011;4921;43.214;27.936;2023-03-24T07:07:25;34.87;;;22.00;;
9763;SDS011;4921;43.214;27.936;2023-03-24T07:09:52;31.83;;;21.77;;
9763;SDS011;4921;43.214;27.936;2023-03-24T07:12:19;34.47;;;22.30;;
9763;SDS011;4921;43.214;27.936;2023-03-24T07:14:46;31.77;;;21.70;;
9763;SDS011;4921;43.214;27.936;2023-03-24T07:17:14;28.63;;;20.97;;
9763;SDS011;4921;43.214;27.936;2023-03-24T07:19:41;30.57;;;20.97;;
9763;SDS011;4921;43.214;27.936;2023-03-24T07:22:09;25.23;;;20.17;;
9763;SDS011;4921;43.214;27.936;2023-03-24T07:24:37;26.93;;;20.63;;
9763;SDS011;4921;43.214;27.936;2023-03-24T07:27:04;28.47;;;20.90;;
9763;SDS011;4921;43.214;27.936;2023-03-24T07:29:31;28.17;;;21.27;;
9763;SDS011;4921;43.214;27.936;2023-03-24T07:31:58;26.33;;;18.87;;
9763;SDS011;4921;43.214;27.936;2023-03-24T07:34:27;23.30;;;19.80;;
9763;SDS011;4921;43.214;27.936;2023-03-24T07:36:54;27.43;;;19.97;;
9763;SDS011;4921;43.214;27.936;2023-03-24T07:39:21;28.60;;;19.67;;
9763;SDS011;4921;43.214;27.936;2023-03-24T07:41:48;32.50;;;28.90;;
9763;SDS011;4921;43.214;27.936;2023-03-24T07:44:15;41.87;;;30.57;;
9763;SDS011;4921;43.214;27.936;2023-03-24T07:46:42;41.77;;;32.80;;
9763;SDS011;4921;43.214;27.936;2023-03-24T07:49:10;37.07;;;33.33;;
9763;SDS011;4921;43.214;27.936;2023-03-24T07:51:40;38.57;;;32.63;;
9763;SDS011;4921;43.214;27.936;2023-03-24T07:54:07;38.00;;;33.07;;
9763;SDS011;4921;43.214;27.936;2023-03-24T07:56:34;37.47;;;31.43;;
9763;SDS011;4921;43.214;27.936;2023-03-24T07:59:01;38.23;;;32.27;;
9763;SDS011;4921;43.214;27.936;2023-03-24T08:01:28;36.60;;;31.73;;
9763;SDS011;4921;43.214;27.936;2023-03-24T08:03:56;39.93;;;31.13;;
9763;SDS011;4921;43.214;27.936;2023-03-24T08:06:22;36.23;;;30.33;;
9763;SDS011;4921;43.214;27.936;2023-03-24T08:08:51;37.90;;;30.30;;
9763;SDS011;4921;43.214;27.936;2023-03-24T08:11:18;35.37;;;29.67;;
9763;SDS011;4921;43.214;27.936;2023-03-24T08:13:45;33.43;;;28.70;;
9763;SDS011;4921;43.214;27.936;2023-03-24T08:16:13;30.30;;;26.77;;
9763;SDS011;4921;43.214;27.936;2023-03-24T08:18:39;29.70;;;25.03;;
9763;SDS011;4921;43.214;27.936;2023-03-24T08:21:06;26.60;;;23.07;;
9763;SDS011;4921;43.214;27.936;2023-03-24T08:23:34;26.63;;;21.80;;
9763;SDS011;4921;43.214;27.936;2023-03-24T08:26:03;24.30;;;21.80;;
9763;SDS011;4921;43.214;27.936;2023-03-24T08:28:31;22.10;;;19.67;;
9763;SDS011;4921;43.214;27.936;2023-03-24T08:30:58;20.37;;;18.17;;
9763;SDS011;4921;43.214;27.936;2023-03-24T08:33:25;21.60;;;18.70;;
9763;SDS011;4921;43.214;27.936;2023-03-24T08:35:52;18.47;;;16.63;;
9763;SDS011;4921;43.214;27.936;2023-03-24T08:38:22;18.00;;;16.17;;
9763;SDS011;4921;43.214;27.936;2023-03-24T08:40:55;18.93;;;16.00;;
9763;SDS011;4921;43.214;27.936;2023-03-24T08:43:24;16.60;;;14.90;;
9763;SDS011;4921;43.214;27.936;2023-03-24T08:45:51;16.53;;;14.67;;
9763;SDS011;4921;43.214;27.936;2023-03-24T08:48:18;16.13;;;14.53;;
9763;SDS011;4921;43.214;27.936;2023-03-24T08:50:47;16.20;;;14.20;;
9763;SDS011;4921;43.214;27.936;2023-03-24T08:53:14;15.00;;;13.50;;
9763;SDS011;4921;43.214;27.936;2023-03-24T08:55:42;14.60;;;13.10;;
9763;SDS011;4921;43.214;27.936;2023-03-24T08:58:11;15.37;;;13.73;;
9763;SDS011;4921;43.214;27.936;2023-03-24T09:00:41;14.40;;;12.90;;
9763;SDS011;4921;43.214;27.936;2023-03-24T09:03:11;14.37;;;12.80;;
9763;SDS011;4921;43.214;27.936;2023-03-24T09:05:42;12.50;;;11.40;;
9763;SDS011;4921;43.214;27.936;2023-03-24T09:08:09;14.20;;;12.70;;
9763;SDS011;4921;43.214;27.936;2023-03-24T09:10:37;13.67;;;12.27;;
9763;SDS011;4921;43.214;27.936;2023-03-24T09:13:04;12.97;;;11.60;;
9763;SDS011;4921;43.214;27.936;2023-03-24T09:15:31;13.03;;;11.83;;
9763;SDS011;4921;43.214;27.936;2023-03-24T09:18:00;12.73;;;11.50;;
9763;SDS011;4921;43.214;27.936;2023-03-24T09:20:27;15.30;;;12.60;;
9763;SDS011;4921;43.214;27.936;2023-03-24T09:22:54;13.93;;;12.57;;
9763;SDS011;4921;43.214;27.936;2023-03-24T09:25:22;13.57;;;12.27;;
9763;SDS011;4921;43.214;27.936;2023-03-24T09:27:49;14.10;;;12.70;;
9763;SDS011;4921;43.214;27.936;2023-03-24T09:30:16;14.17;;;12.67;;
9763;SDS011;4921;43.214;27.936;2023-03-24T09:32:44;14.10;;;12.60;;
9763;SDS011;4921;43.214;27.936;2023-03-24T09:35:13;13.50;;;12.13;;
9763;SDS011;4921;43.214;27.936;2023-03-24T09:37:40;14.93;;;13.43;;
9763;SDS011;4921;43.214;27.936;2023-03-24T09:40:09;15.27;;;13.20;;
9763;SDS011;4921;43.214;27.936;2023-03-24T09:42:45;14.03;;;12.63;;
9763;SDS011;4921;43.214;27.936;2023-03-24T09:45:19;14.37;;;12.73;;
9763;SDS011;4921;43.214;27.936;2023-03-24T09:47:48;15.63;;;12.60;;
9763;SDS011;4921;43.214;27.936;2023-03-24T09:50:21;14.73;;;13.23;;
9763;SDS011;4921;43.214;27.936;2023-03-24T09:52:52;14.60;;;13.07;;
9763;SDS011;4921;43.214;27.936;2023-03-24T09:55:23;18.80;;;13.23;;
9763;SDS011;4921;43.214;27.936;2023-03-24T09:57:51;16.53;;;13.40;;
9763;SDS011;4921;43.214;27.936;2023-03-24T10:00:22;14.53;;;12.87;;
9763;SDS011;4921;43.214;27.936;2023-03-24T10:02:52;16.37;;;14.07;;
9763;SDS011;4921;43.214;27.936;2023-03-24T10:05:26;14.20;;;12.87;;
9763;SDS011;4921;43.214;27.936;2023-03-24T10:07:58;13.40;;;12.07;;
9763;SDS011;4921;43.214;27.936;2023-03-24T10:10:32;14.43;;;13.00;;
9763;SDS011;4921;43.214;27.936;2023-03-24T10:13:06;15.00;;;12.73;;
9763;SDS011;4921;43.214;27.936;2023-03-24T10:15:41;16.03;;;13.43;;
9763;SDS011;4921;43.214;27.936;2023-03-24T10:18:22;15.97;;;12.40;;
9763;SDS011;4921;43.214;27.936;2023-03-24T10:21:03;15.70;;;12.33;;
9763;SDS011;4921;43.214;27.936;2023-03-24T10:23:38;17.20;;;12.27;;
9763;SDS011;4921;43.214;27.936;2023-03-24T10:26:14;17.73;;;12.87;;
9763;SDS011;4921;43.214;27.936;2023-03-24T10:28:56;13.67;;;12.23;;
9763;SDS011;4921;43.214;27.936;2023-03-24T10:31:33;15.50;;;12.23;;
9763;SDS011;4921;43.214;27.936;2023-03-24T10:34:02;15.47;;;11.97;;
9763;SDS011;4921;43.214;27.936;2023-03-24T10:36:31;14.03;;;11.83;;
9763;SDS011;4921;43.214;27.936;2023-03-24T10:39:00;14.23;;;12.57;;
9763;SDS011;4921;43.214;27.936;2023-03-24T10:41:27;14.37;;;11.97;;
9763;SDS011;4921;43.214;27.936;2023-03-24T10:43:55;13.67;;;12.27;;
9763;SDS011;4921;43.214;27.936;2023-03-24T10:46:25;17.37;;;15.17;;
9763;SDS011;4921;43.214;27.936;2023-03-24T10:49:05;20.67;;;17.10;;
9763;SDS011;4921;43.214;27.936;2023-03-24T10:51:35;23.00;;;18.53;;
9763;SDS011;4921;43.214;27.936;2023-03-24T10:54:10;20.93;;;18.50;;
9763;SDS011;4921;43.214;27.936;2023-03-24T10:56:41;20.60;;;17.70;;
9763;SDS011;4921;43.214;27.936;2023-03-24T10:59:19;20.03;;;15.00;;
9763;SDS011;4921;43.214;27.936;2023-03-24T11:01:50;22.87;;;16.93;;
9763;SDS011;4921;43.214;27.936;2023-03-24T11:04:23;21.27;;;16.67;;
9763;SDS011;4921;43.214;27.936;2023-03-24T11:06:56;20.57;;;16.07;;
9763;SDS011;4921;43.214;27.936;2023-03-24T11:09:28;19.43;;;15.53;;
9763;SDS011;4921;43.214;27.936;2023-03-24T11:12:04;20.27;;;16.30;;
9763;SDS011;4921;43.214;27.936;2023-03-24T11:14:31;21.07;;;16.00;;
9763;SDS011;4921;43.214;27.936;2023-03-24T11:17:01;20.90;;;16.23;;
9763;SDS011;4921;43.214;27.936;2023-03-24T11:19:35;19.23;;;14.70;;
9763;SDS011;4921;43.214;27.936;2023-03-24T11:22:04;17.00;;;13.33;;
9763;SDS011;4921;43.214;27.936;2023-03-24T11:24:34;12.87;;;11.00;;
9763;SDS011;4921;43.214;27.936;2023-03-24T11:27:02;12.80;;;11.37;;
9763;SDS011;4921;43.214;27.936;2023-03-24T11:29:30;12.10;;;10.67;;
9763;SDS011;4921;43.214;27.936;2023-03-24T11:31:59;16.67;;;10.80;;
9763;SDS011;4921;43.214;27.936;2023-03-24T11:34:28;11.73;;;10.53;;
9763;SDS011;4921;43.214;27.936;2023-03-24T11:36:58;14.03;;;10.57;;
9763;SDS011;4921;43.214;27.936;2023-03-24T11:39:29;15.47;;;10.40;;
9763;SDS011;4921;43.214;27.936;2023-03-24T11:41:59;13.33;;;9.37;;
9763;SDS011;4921;43.214;27.936;2023-03-24T11:44:30;9.27;;;8.07;;
9763;SDS011;4921;43.214;27.936;2023-03-24T11:47:07;14.10;;;10.27;;
9763;SDS011;4921;43.214;27.936;2023-03-24T11:49:38;10.47;;;7.70;;
9763;SDS011;4921;43.214;27.936;2023-03-24T11:52:11;10.37;;;8.73;;
9763;SDS011;4921;43.214;27.936;2023-03-24T11:54:51;10.87;;;8.30;;
9763;SDS011;4921;43.214;27.936;2023-03-24T11:57:21;11.40;;;8.23;;
9763;SDS011;4921;43.214;27.936;2023-03-24T12:00:03;9.57;;;8.57;;
9763;SDS011;4921;43.214;27.936;2023-03-24T12:02:43;12.00;;;9.60;;
9763;SDS011;4921;43.214;27.936;2023-03-24T12:05:27;11.57;;;9.70;;
9763;SDS011;4921;43.214;27.936;2023-03-24T12:08:16;17.37;;;14.20;;
9763;SDS011;4921;43.214;27.936;2023-03-24T12:11:07;10.37;;;9.20;;
9763;SDS011;4921;43.214;27.936;2023-03-24T12:13:41;9.97;;;8.90;;
9763;SDS011;4921;43.214;27.936;2023-03-24T12:16:20;11.00;;;9.87;;
9763;SDS011;4921;43.214;27.936;2023-03-24T12:19:05;13.83;;;10.80;;
9763;SDS011;4921;43.214;27.936;2023-03-24T12:22:02;12.10;;;10.80;;
9763;SDS011;4921;43.214;27.936;2023-03-24T12:24:46;13.00;;;10.87;;
9763;SDS011;4921;43.214;27.936;2023-03-24T12:27:36;12.47;;;11.17;;
9763;SDS011;4921;43.214;27.936;2023-03-24T12:30:13;12.40;;;11.10;;
9763;SDS011;4921;43.214;27.936;2023-03-24T12:32:49;12.70;;;11.07;;
9763;SDS011;4921;43.214;27.936;2023-03-24T12:35:33;13.77;;;10.03;;
9763;SDS011;4921;43.214;27.936;2023-03-24T12:38:24;15.57;;;10.60;;
9763;SDS011;4921;43.214;27.936;2023-03-24T12:41:11;10.77;;;9.27;;
9763;SDS011;4921;43.214;27.936;2023-03-24T12:47:14;10.53;;;9.43;;
9763;SDS011;4921;43.214;27.936;2023-03-24T12:49:56;14.57;;;11.37;;
9763;SDS011;4921;43.214;27.936;2023-03-24T12:52:41;13.47;;;8.97;;
9763;SDS011;4921;43.214;27.936;2023-03-24T12:55:28;11.53;;;8.47;;
9763;SDS011;4921;43.214;27.936;2023-03-24T12:57:59;10.20;;;9.27;;
9763;SDS011;4921;43.214;27.936;2023-03-24T13:00:33;9.10;;;8.20;;
9763;SDS011;4921;43.214;27.936;2023-03-24T13:03:08;8.87;;;7.83;;
9763;SDS011;4921;43.214;27.936;2023-03-24T13:05:39;8.93;;;7.50;;
9763;SDS011;4921;43.214;27.936;2023-03-24T13:08:12;7.50;;;6.50;;
9763;SDS011;4921;43.214;27.936;2023-03-24T13:10:47;8.00;;;7.00;;
9763;SDS011;4921;43.214;27.936;2023-03-24T13:13:19;7.90;;;7.13;;
9763;SDS011;4921;43.214;27.936;2023-03-24T13:15:50;8.03;;;7.10;;
9763;SDS011;4921;43.214;27.936;2023-03-24T13:18:24;9.97;;;7.57;;
9763;SDS011;4921;43.214;27.936;2023-03-24T13:20:58;9.67;;;7.63;;
9763;SDS011;4921;43.214;27.936;2023-03-24T13:23:35;8.67;;;6.73;;
9763;SDS011;4921;43.214;27.936;2023-03-24T13:26:14;7.93;;;7.13;;
9763;SDS011;4921;43.214;27.936;2023-03-24T13:28:48;8.10;;;7.17;;
9763;SDS011;4921;43.214;27.936;2023-03-24T13:31:24;8.00;;;7.23;;
9763;SDS011;4921;43.214;27.936;2023-03-24T13:33:56;7.87;;;7.07;;
9763;SDS011;4921;43.214;27.936;2023-03-24T13:39:13;8.13;;;7.33;;
9763;SDS011;4921;43.214;27.936;2023-03-24T13:41:45;9.63;;;7.30;;
9763;SDS011;4921;43.214;27.936;2023-03-24T13:44:16;7.80;;;7.10;;
9763;SDS011;4921;43.214;27.936;2023-03-24T13:49:37;8.90;;;7.90;;
9763;SDS011;4921;43.214;27.936;2023-03-24T13:52:12;8.27;;;7.57;;
9763;SDS011;4921;43.214;27.936;2023-03-24T13:54:47;8.97;;;8.00;;
9763;SDS011;4921;43.214;27.936;2023-03-24T13:57:17;10.33;;;8.33;;
9763;SDS011;4921;43.214;27.936;2023-03-24T13:59:56;8.27;;;7.47;;
9763;SDS011;4921;43.214;27.936;2023-03-24T14:02:45;9.37;;;7.93;;
9763;SDS011;4921;43.214;27.936;2023-03-24T14:05:33;10.57;;;7.60;;
9763;SDS011;4921;43.214;27.936;2023-03-24T14:08:16;8.97;;;8.07;;
9763;SDS011;4921;43.214;27.936;2023-03-24T14:10:46;9.37;;;7.57;;
9763;SDS011;4921;43.214;27.936;2023-03-24T14:19:26;10.90;;;8.80;;
9763;SDS011;4921;43.214;27.936;2023-03-24T14:21:58;11.53;;;9.47;;
9763;SDS011;4921;43.214;27.936;2023-03-24T14:24:34;13.30;;;11.33;;
9763;SDS011;4921;43.214;27.936;2023-03-24T14:29:48;12.33;;;11.00;;
9763;SDS011;4921;43.214;27.936;2023-03-24T14:32:16;13.10;;;11.70;;
9763;SDS011;4921;43.214;27.936;2023-03-24T14:34:55;13.40;;;10.43;;
9763;SDS011;4921;43.214;27.936;2023-03-24T14:37:24;12.63;;;11.20;;
9763;SDS011;4921;43.214;27.936;2023-03-24T14:39:52;18.53;;;10.93;;
9763;SDS011;4921;43.214;27.936;2023-03-24T14:42:26;21.03;;;11.07;;
9763;SDS011;4921;43.214;27.936;2023-03-24T14:48:26;13.53;;;11.40;;
9763;SDS011;4921;43.214;27.936;2023-03-24T14:50:59;16.50;;;11.37;;
9763;SDS011;4921;43.214;27.936;2023-03-24T14:53:32;15.40;;;11.57;;
9763;SDS011;4921;43.214;27.936;2023-03-24T14:56:02;14.20;;;12.30;;
9763;SDS011;4921;43.214;27.936;2023-03-24T14:58:31;16.60;;;12.63;;
9763;SDS011;4921;43.214;27.936;2023-03-24T15:01:03;16.73;;;13.20;;
9763;SDS011;4921;43.214;27.936;2023-03-24T15:03:33;14.50;;;11.23;;
9763;SDS011;4921;43.214;27.936;2023-03-24T15:06:13;15.67;;;12.50;;
9763;SDS011;4921;43.214;27.936;2023-03-24T15:08:44;16.60;;;12.57;;
9763;SDS011;4921;43.214;27.936;2023-03-24T15:11:16;17.50;;;14.00;;
9763;SDS011;4921;43.214;27.936;2023-03-24T15:13:47;18.23;;;14.67;;
9763;SDS011;4921;43.214;27.936;2023-03-24T15:16:20;22.30;;;13.97;;
9763;SDS011;4921;43.214;27.936;2023-03-24T15:18:49;13.03;;;11.30;;
9763;SDS011;4921;43.214;27.936;2023-03-24T15:21:25;16.10;;;13.10;;
9763;SDS011;4921;43.214;27.936;2023-03-24T15:23:54;16.07;;;13.53;;
9763;SDS011;4921;43.214;27.936;2023-03-24T15:26:23;14.37;;;11.93;;
9763;SDS011;4921;43.214;27.936;2023-03-24T15:28:57;14.93;;;12.13;;
9763;SDS011;4921;43.214;27.936;2023-03-24T15:31:25;15.30;;;11.90;;
9763;SDS011;4921;43.214;27.936;2023-03-24T15:34:05;14.70;;;12.13;;
9763;SDS011;4921;43.214;27.936;2023-03-24T15:36:37;10.93;;;9.53;;